createdAt,value
2022-09-01T00:00:19.585Z,6.65
2022-09-01T00:02:48.026Z,7.03
2022-09-01T00:05:17.070Z,6.85
2022-09-01T00:07:45.226Z,6.57
2022-09-01T00:10:15.488Z,7.32
2022-09-01T00:12:43.597Z,6.82
2022-09-01T00:15:13.542Z,6.65
2022-09-01T00:17:41.445Z,6.65
2022-09-01T00:20:09.317Z,6.40
2022-09-01T00:22:37.992Z,7.22
2022-09-01T00:25:09.463Z,7.00
2022-09-01T00:27:38.465Z,6.68
2022-09-01T00:30:06.440Z,7.07
2022-09-01T00:32:36.363Z,7.13
2022-09-01T00:35:05.093Z,7.18
2022-09-01T00:37:33.365Z,7.35
2022-09-01T00:40:00.789Z,7.22
2022-09-01T00:42:28.252Z,7.53
2022-09-01T00:44:56.868Z,10.38
2022-09-01T00:47:24.407Z,15.10
2022-09-01T00:49:54.063Z,12.48
2022-09-01T00:52:32.838Z,7.20
2022-09-01T00:55:21.923Z,6.68
2022-09-01T00:57:50.075Z,6.32
2022-09-01T01:00:20.703Z,6.97
2022-09-01T01:02:56.185Z,6.20
2022-09-01T01:05:33.247Z,6.13
2022-09-01T01:08:03.284Z,6.95
2022-09-01T01:10:36.045Z,6.30
2022-09-01T01:13:10.080Z,6.07
2022-09-01T01:15:38.055Z,5.97
2022-09-01T01:18:06.546Z,7.72
2022-09-01T01:20:53.452Z,6.55
2022-09-01T01:23:42.669Z,7.05
2022-09-01T01:26:12.175Z,6.35
2022-09-01T01:28:44.352Z,7.07
2022-09-01T01:31:19.550Z,6.35
2022-09-01T01:33:51.239Z,7.53
2022-09-01T01:36:32.649Z,7.05
2022-09-01T01:39:07.702Z,7.00
2022-09-01T01:41:41.510Z,6.32
2022-09-01T01:44:12.147Z,6.78
2022-09-01T01:46:44.638Z,6.75
2022-09-01T01:49:20.887Z,6.55
2022-09-01T01:51:56.734Z,6.60
2022-09-01T01:54:32.801Z,6.90
2022-09-01T01:57:04.670Z,7.05
2022-09-01T01:59:33.999Z,7.30
2022-09-01T02:02:03.949Z,6.45
2022-09-01T02:04:34.467Z,6.50
2022-09-01T02:07:12.205Z,6.13
2022-09-01T02:09:44.687Z,7.63
2022-09-01T02:12:19.564Z,6.53
2022-09-01T02:14:49.265Z,7.05
2022-09-01T02:17:17.363Z,6.95
2022-09-01T02:19:55.770Z,7.45
2022-09-01T02:22:26.459Z,6.93
2022-09-01T02:24:56.274Z,6.72
2022-09-01T02:27:29.817Z,6.60
2022-09-01T02:29:59.074Z,7.13
2022-09-01T02:35:17.148Z,7.15
2022-09-01T02:37:50.217Z,6.65
2022-09-01T02:40:18.635Z,6.82
2022-09-01T02:42:48.135Z,6.55
2022-09-01T02:45:16.820Z,6.53
2022-09-01T02:47:46.816Z,6.25
2022-09-01T02:50:17.765Z,6.90
2022-09-01T02:52:49.496Z,6.80
2022-09-01T02:55:21.800Z,7.70
2022-09-01T02:57:57.344Z,7.15
2022-09-01T03:00:33.933Z,7.30
2022-09-01T03:03:02.523Z,7.55
2022-09-01T03:05:32.726Z,7.65
2022-09-01T03:08:03.289Z,8.63
2022-09-01T03:10:33.757Z,8.13
2022-09-01T03:13:09.827Z,7.35
2022-09-01T03:15:38.770Z,7.82
2022-09-01T03:18:08.367Z,7.32
2022-09-01T03:20:40.091Z,7.82
2022-09-01T03:23:09.016Z,7.68
2022-09-01T03:25:37.901Z,7.53
2022-09-01T03:28:06.185Z,7.80
2022-09-01T03:30:40.478Z,7.65
2022-09-01T03:33:08.458Z,7.82
2022-09-01T03:35:36.630Z,7.50
2022-09-01T03:38:05.455Z,7.60
2022-09-01T03:40:36.807Z,7.53
2022-09-01T03:43:06.800Z,7.28
2022-09-01T03:45:38.510Z,8.30
2022-09-01T03:48:09.498Z,7.32
2022-09-01T03:50:45.184Z,7.60
2022-09-01T03:55:46.009Z,7.90
2022-09-01T03:58:19.651Z,8.50
2022-09-01T04:01:00.896Z,8.55
2022-09-01T04:03:32.942Z,8.32
2022-09-01T04:06:03.010Z,7.90
2022-09-01T04:08:33.215Z,8.20
2022-09-01T04:11:05.353Z,8.25
2022-09-01T04:13:40.053Z,9.02
2022-09-01T04:16:37.154Z,8.75
2022-09-01T04:19:16.607Z,8.43
2022-09-01T04:21:45.098Z,8.68
2022-09-01T04:24:19.616Z,8.98
2022-09-01T04:26:49.829Z,9.77
2022-09-01T04:29:29.994Z,10.35
2022-09-01T04:32:05.702Z,10.18
2022-09-01T04:34:38.391Z,11.05
2022-09-01T04:37:15.214Z,11.27
2022-09-01T04:39:54.850Z,11.68
2022-09-01T04:42:26.398Z,10.88
2022-09-01T04:44:57.958Z,12.07
2022-09-01T04:47:36.211Z,12.13
2022-09-01T04:50:16.571Z,11.40
2022-09-01T04:53:01.333Z,11.93
2022-09-01T04:55:32.888Z,12.18
2022-09-01T04:58:15.873Z,12.13
2022-09-01T05:00:45.501Z,12.48
2022-09-01T05:03:15.885Z,11.35
2022-09-01T05:06:04.004Z,11.32
2022-09-01T05:08:36.370Z,9.43
2022-09-01T05:11:09.448Z,10.68
2022-09-01T05:13:40.631Z,11.27
2022-09-01T05:16:13.447Z,11.25
2022-09-01T05:18:47.892Z,11.73
2022-09-01T05:21:19.029Z,11.07
2022-09-01T05:23:49.617Z,11.52
2022-09-01T05:26:32.185Z,10.95
2022-09-01T05:29:02.515Z,12.13
2022-09-01T05:31:38.216Z,10.55
2022-09-01T05:36:38.003Z,11.20
2022-09-01T05:39:08.200Z,11.77
2022-09-01T05:41:37.429Z,11.13
2022-09-01T05:44:08.454Z,11.80
2022-09-01T05:46:40.192Z,11.30
2022-09-01T05:49:14.337Z,10.32
2022-09-01T05:51:45.756Z,10.93
2022-09-01T05:54:23.418Z,10.88
2022-09-01T05:56:54.021Z,11.05
2022-09-01T05:59:26.700Z,10.20
2022-09-01T06:02:01.885Z,9.70
2022-09-01T06:04:31.010Z,9.90
2022-09-01T06:07:11.866Z,9.40
2022-09-01T06:09:48.776Z,10.02
2022-09-01T06:12:23.253Z,10.00
2022-09-01T06:14:54.314Z,8.43
2022-09-01T06:17:26.468Z,9.93
2022-09-01T06:19:58.463Z,10.20
2022-09-01T06:22:29.200Z,10.50
2022-09-01T06:25:02.656Z,10.00
2022-09-01T06:27:42.757Z,9.48
2022-09-01T06:30:23.097Z,9.65
2022-09-01T06:32:57.215Z,10.07
2022-09-01T06:35:29.753Z,8.38
2022-09-01T06:38:00.317Z,8.73
2022-09-01T06:40:39.991Z,8.40
2022-09-01T06:43:09.968Z,8.68
2022-09-01T06:45:45.339Z,11.13
2022-09-01T06:48:16.354Z,8.75
2022-09-01T06:53:35.822Z,8.60
2022-09-01T06:56:07.256Z,8.02
2022-09-01T06:58:36.423Z,7.53
2022-09-01T07:01:12.197Z,8.45
2022-09-01T07:03:45.911Z,7.88
2022-09-01T07:09:20.517Z,7.47
2022-09-01T07:12:26.200Z,8.18
2022-09-01T07:17:52.439Z,6.95
2022-09-01T07:20:27.066Z,7.57
2022-09-01T07:23:06.391Z,7.38
2022-09-01T07:28:40.395Z,7.22
2022-09-01T07:39:49.098Z,7.93
2022-09-01T07:45:58.379Z,6.05
2022-09-01T07:51:37.134Z,7.40
2022-09-01T07:54:06.835Z,7.57
2022-09-01T07:56:39.839Z,6.95
2022-09-01T07:59:15.215Z,7.22
2022-09-01T08:01:55.862Z,6.65
2022-09-01T08:04:24.335Z,6.90
2022-09-01T08:06:51.796Z,7.10
2022-09-01T08:09:32.901Z,7.25
2022-09-01T08:12:08.871Z,6.88
2022-09-01T08:17:51.716Z,6.95
2022-09-01T08:20:22.063Z,5.95
2022-09-01T08:22:49.972Z,6.47
2022-09-01T08:28:05.892Z,6.03
2022-09-01T08:30:36.618Z,6.80
2022-09-01T08:33:12.703Z,6.63
2022-09-01T08:35:49.396Z,6.22
2022-09-01T08:38:19.438Z,6.95
2022-09-01T08:40:56.806Z,6.53
2022-09-01T08:43:45.393Z,6.70
2022-09-01T08:46:42.594Z,6.78
2022-09-01T08:49:26.181Z,6.55
2022-09-01T08:52:18.166Z,6.15
2022-09-01T08:54:51.363Z,7.15
2022-09-01T08:57:34.548Z,6.55
2022-09-01T09:00:30.798Z,6.13
2022-09-01T09:03:24.381Z,6.72
2022-09-01T09:06:04.447Z,5.88
2022-09-01T09:08:47.956Z,5.90
2022-09-01T09:11:34.253Z,6.75
2022-09-01T09:14:39.959Z,6.45
2022-09-01T09:17:09.005Z,6.40
2022-09-01T09:19:39.759Z,6.78
2022-09-01T09:22:13.355Z,5.43
2022-09-01T09:25:01.349Z,5.65
2022-09-01T09:28:00.411Z,7.10
2022-09-01T09:30:31.564Z,6.30
2022-09-01T09:35:55.179Z,5.85
2022-09-01T09:38:38.429Z,6.90
2022-09-01T09:41:18.811Z,6.97
2022-09-01T09:44:27.414Z,7.18
2022-09-01T09:46:55.177Z,6.28
2022-09-01T09:49:36.374Z,6.57
2022-09-01T09:52:09.297Z,7.70
2022-09-01T09:55:01.487Z,6.88
2022-09-01T09:57:31.633Z,7.03
2022-09-01T10:00:17.024Z,6.45
2022-09-01T10:02:47.034Z,5.65
2022-09-01T10:05:37.357Z,6.72
2022-09-01T10:08:09.773Z,6.93
2022-09-01T10:10:58.031Z,7.38
2022-09-01T10:13:33.059Z,7.13
2022-09-01T10:16:05.885Z,6.93
2022-09-01T10:18:45.587Z,7.18
2022-09-01T10:21:17.777Z,6.80
2022-09-01T10:23:46.867Z,7.43
2022-09-01T10:26:33.995Z,7.53
2022-09-01T10:29:12.127Z,7.45
2022-09-01T10:31:41.807Z,8.07
2022-09-01T10:34:19.459Z,6.90
2022-09-01T10:36:55.014Z,7.18
2022-09-01T10:39:29.455Z,7.00
2022-09-01T10:42:07.623Z,6.53
2022-09-01T10:45:10.017Z,6.32
2022-09-01T10:47:41.403Z,7.15
2022-09-01T10:50:35.409Z,6.85
2022-09-01T10:53:06.893Z,7.72
2022-09-01T10:55:45.473Z,7.30
2022-09-01T11:01:51.647Z,6.28
2022-09-01T11:04:23.809Z,7.63
2022-09-01T11:09:45.007Z,6.63
2022-09-01T11:12:43.079Z,7.78
2022-09-01T11:15:17.115Z,7.68
2022-09-01T11:17:51.904Z,7.00
2022-09-01T11:20:39.047Z,7.88
2022-09-01T11:23:27.694Z,8.00
2022-09-01T11:28:48.792Z,8.23
2022-09-01T11:31:51.489Z,7.57
2022-09-01T11:34:23.851Z,6.85
2022-09-01T11:36:59.561Z,7.40
2022-09-01T11:39:42.469Z,6.40
2022-09-01T11:42:14.735Z,7.20
2022-09-01T11:45:21.650Z,7.35
2022-09-01T11:47:57.946Z,7.13
2022-09-01T11:50:29.306Z,7.65
2022-09-01T11:53:05.458Z,7.18
2022-09-01T11:55:38.006Z,7.00
2022-09-01T11:58:13.422Z,6.68
2022-09-01T12:00:43.990Z,7.57
2022-09-01T12:03:31.125Z,8.15
2022-09-01T12:06:03.056Z,7.57
2022-09-01T12:08:34.110Z,7.20
2022-09-01T12:11:11.914Z,7.50
2022-09-01T12:13:41.850Z,8.00
2022-09-01T12:16:18.277Z,8.40
2022-09-01T12:18:51.296Z,8.00
2022-09-01T12:21:27.695Z,8.30
2022-09-01T12:24:11.852Z,8.40
2022-09-01T12:26:41.133Z,7.68
2022-09-01T12:29:09.278Z,7.55
2022-09-01T12:31:40.669Z,8.55
2022-09-01T12:34:25.887Z,9.00
2022-09-01T12:37:26.210Z,8.77
2022-09-01T12:39:59.810Z,7.97
2022-09-01T12:42:40.887Z,8.57
2022-09-01T12:45:10.642Z,9.18
2022-09-01T12:47:48.105Z,9.23
2022-09-01T12:50:17.138Z,8.95
2022-09-01T12:53:05.847Z,8.40
2022-09-01T12:55:51.797Z,8.00
2022-09-01T12:58:30.379Z,8.32
2022-09-01T13:01:24.440Z,9.05
2022-09-01T13:04:20.967Z,8.68
2022-09-01T13:06:49.770Z,9.27
2022-09-01T13:09:18.104Z,7.30
2022-09-01T13:14:37.787Z,7.38
2022-09-01T13:17:10.064Z,7.95
2022-09-01T13:19:43.109Z,7.10
2022-09-01T13:22:11.557Z,7.43
2022-09-01T13:24:40.098Z,7.72
2022-09-01T13:27:23.950Z,8.45
2022-09-01T13:29:52.488Z,8.53
2022-09-01T13:32:24.293Z,8.45
2022-09-01T13:34:54.554Z,8.60
2022-09-01T13:37:23.018Z,9.25
2022-09-01T13:39:50.784Z,9.77
2022-09-01T13:42:19.264Z,10.40
2022-09-01T13:44:49.745Z,9.10
2022-09-01T13:47:35.423Z,12.88
2022-09-01T13:50:11.461Z,9.55
2022-09-01T13:52:43.395Z,8.90
2022-09-01T13:55:13.971Z,9.13
2022-09-01T13:57:42.239Z,8.38
2022-09-01T14:00:12.838Z,9.45
2022-09-01T14:02:51.781Z,9.25
2022-09-01T14:05:22.954Z,9.82
2022-09-01T14:07:53.876Z,9.77
2022-09-01T14:10:24.184Z,9.77
2022-09-01T14:12:54.178Z,9.80
2022-09-01T14:15:28.013Z,9.50
2022-09-01T14:18:37.044Z,9.85
2022-09-01T14:21:05.061Z,9.18
2022-09-01T14:23:32.658Z,9.43
2022-09-01T14:26:00.248Z,10.15
2022-09-01T14:28:27.798Z,10.30
2022-09-01T14:33:28.176Z,9.02
2022-09-01T14:36:00.966Z,9.57
2022-09-01T14:38:38.808Z,10.32
2022-09-01T14:41:08.787Z,9.75
2022-09-01T14:43:50.105Z,8.35
2022-09-01T14:46:24.386Z,9.48
2022-09-01T14:48:53.427Z,9.07
2022-09-01T14:54:27.666Z,9.38
2022-09-01T14:59:44.012Z,9.88
2022-09-01T15:02:11.881Z,10.32
2022-09-01T15:04:39.855Z,10.23
2022-09-01T15:07:07.372Z,9.18
2022-09-01T15:09:35.720Z,10.48
2022-09-01T15:12:04.562Z,8.93
2022-09-01T15:14:33.257Z,10.68
2022-09-01T15:17:01.097Z,10.07
2022-09-01T15:19:29.307Z,9.43
2022-09-01T15:21:56.665Z,8.93
2022-09-01T15:24:24.979Z,10.57
2022-09-01T15:26:52.496Z,10.25
2022-09-01T15:29:20.291Z,9.20
2022-09-01T15:31:47.702Z,9.00
2022-09-01T15:34:17.353Z,10.02
2022-09-01T15:36:45.618Z,11.57
2022-09-01T15:39:13.413Z,10.25
2022-09-01T15:41:40.923Z,10.45
2022-09-01T15:44:08.894Z,10.43
2022-09-01T15:46:39.055Z,10.07
2022-09-01T15:49:09.936Z,9.85
2022-09-01T15:51:43.613Z,9.68
2022-09-01T15:54:20.593Z,9.50
2022-09-01T15:56:49.287Z,9.80
2022-09-01T15:59:17.508Z,9.23
2022-09-01T16:01:46.338Z,9.23
2022-09-01T16:04:20.857Z,10.30
2022-09-01T16:06:51.361Z,9.75
2022-09-01T16:09:21.339Z,8.95
2022-09-01T16:11:49.248Z,9.68
2022-09-01T16:14:16.620Z,10.00
2022-09-01T16:16:50.357Z,12.27
2022-09-01T16:19:46.060Z,9.15
2022-09-01T16:24:57.974Z,12.15
2022-09-01T16:27:34.885Z,10.43
2022-09-01T16:30:08.249Z,11.68
2022-09-01T16:32:38.052Z,11.23
2022-09-01T16:35:07.098Z,12.00
2022-09-01T16:37:39.080Z,12.68
2022-09-01T16:40:17.599Z,12.90
2022-09-01T16:43:05.652Z,16.10
2022-09-01T16:45:54.962Z,15.77
2022-09-01T16:48:42.314Z,15.70
2022-09-01T16:51:30.264Z,14.63
2022-09-01T16:54:29.245Z,14.50
2022-09-01T16:57:30.442Z,15.75
2022-09-01T17:00:05.939Z,13.38
2022-09-01T17:03:03.292Z,14.30
2022-09-01T17:05:35.614Z,14.48
2022-09-01T17:08:10.362Z,12.82
2022-09-01T17:10:42.947Z,14.25
2022-09-01T17:13:23.720Z,13.88
2022-09-01T17:16:23.375Z,12.02
2022-09-01T17:18:56.353Z,12.98
2022-09-01T17:21:26.944Z,11.98
2022-09-01T17:24:18.396Z,12.60
2022-09-01T17:26:51.027Z,10.77
2022-09-01T17:29:29.270Z,11.73
2022-09-01T17:32:14.194Z,11.88
2022-09-01T17:34:50.051Z,14.55
2022-09-01T17:37:22.110Z,21.75
2022-09-01T17:40:04.850Z,13.02
2022-09-01T17:42:58.275Z,11.95
2022-09-01T17:45:51.321Z,13.45
2022-09-01T17:48:27.426Z,12.65
2022-09-01T17:51:20.536Z,11.77
2022-09-01T17:54:02.363Z,11.50
2022-09-01T17:56:45.439Z,11.70
2022-09-01T17:59:42.732Z,12.48
2022-09-01T18:02:31.992Z,11.13
2022-09-01T18:05:06.646Z,12.20
2022-09-01T18:07:37.661Z,11.30
2022-09-01T18:10:12.179Z,10.70
2022-09-01T18:12:41.174Z,11.10
2022-09-01T18:15:13.549Z,10.90
2022-09-01T18:17:48.511Z,11.25
2022-09-01T18:20:47.163Z,11.52
2022-09-01T18:23:19.834Z,10.45
2022-09-01T18:25:58.281Z,17.25
2022-09-01T18:28:25.980Z,10.48
2022-09-01T18:30:56.241Z,10.98
2022-09-01T18:33:39.623Z,12.60
2022-09-01T18:36:10.138Z,11.20
2022-09-01T18:38:44.666Z,10.80
2022-09-01T18:41:22.877Z,11.05
2022-09-01T18:44:03.742Z,11.68
2022-09-01T18:46:40.623Z,10.52
2022-09-01T18:49:50.394Z,10.57
2022-09-01T18:52:42.971Z,10.02
2022-09-01T18:55:32.753Z,11.15
2022-09-01T18:58:08.810Z,11.13
2022-09-01T19:01:10.294Z,10.63
2022-09-01T19:03:49.336Z,10.25
2022-09-01T19:06:50.449Z,10.70
2022-09-01T19:09:33.978Z,10.50
2022-09-01T19:12:24.532Z,10.20
2022-09-01T19:15:01.089Z,11.18
2022-09-01T19:17:38.094Z,10.10
2022-09-01T19:20:12.031Z,10.10
2022-09-01T19:23:08.208Z,10.48
2022-09-01T19:25:46.033Z,11.07
2022-09-01T19:28:25.677Z,10.52
2022-09-01T19:30:53.447Z,10.05
2022-09-01T19:33:29.642Z,9.43
2022-09-01T19:36:03.125Z,11.43
2022-09-01T19:38:32.248Z,10.38
2022-09-01T19:41:25.087Z,11.60
2022-09-01T19:44:11.512Z,11.90
2022-09-01T19:46:48.525Z,10.50
2022-09-01T19:49:17.448Z,10.38
2022-09-01T19:52:03.158Z,11.65
2022-09-01T19:54:44.997Z,11.77
2022-09-01T19:57:37.958Z,10.40
2022-09-01T20:00:31.958Z,11.00
2022-09-01T20:03:13.184Z,10.18
2022-09-01T20:05:47.833Z,10.52
2022-09-01T20:08:30.073Z,10.95
2022-09-01T20:14:17.762Z,9.68
2022-09-01T20:16:51.287Z,11.98
2022-09-01T20:19:47.349Z,11.50
2022-09-01T20:22:35.201Z,10.07
2022-09-01T20:25:14.725Z,10.13
2022-09-01T20:27:52.645Z,9.55
2022-09-01T20:30:24.302Z,8.80
2022-09-01T20:33:29.424Z,8.73
2022-09-01T20:36:06.836Z,8.40
2022-09-01T20:39:21.684Z,8.55
2022-09-01T20:42:16.351Z,9.02
2022-09-01T20:44:57.636Z,8.65
2022-09-01T20:47:30.937Z,9.25
2022-09-01T20:50:08.834Z,9.65
2022-09-01T20:52:56.246Z,10.00
2022-09-01T20:56:07.395Z,10.57
2022-09-01T20:58:44.324Z,14.00
2022-09-01T21:01:19.996Z,12.48
2022-09-01T21:04:12.259Z,12.00
2022-09-01T21:06:58.078Z,9.93
2022-09-01T21:09:40.455Z,9.15
2022-09-01T21:12:39.429Z,8.77
2022-09-01T21:15:24.091Z,8.05
2022-09-01T21:18:22.456Z,8.05
2022-09-01T21:20:56.266Z,17.15
2022-09-01T21:23:24.438Z,8.82
2022-09-01T21:25:51.750Z,9.43
2022-09-01T21:28:22.228Z,10.30
2022-09-01T21:30:54.284Z,7.88
2022-09-01T21:33:23.488Z,8.80
2022-09-01T21:35:52.703Z,8.70
2022-09-01T21:38:20.217Z,9.95
2022-09-01T21:40:49.631Z,9.35
2022-09-01T21:43:20.121Z,9.25
2022-09-01T21:45:48.677Z,8.68
2022-09-01T21:48:16.505Z,17.80
2022-09-01T21:50:44.695Z,21.95
2022-09-01T21:53:14.205Z,11.25
2022-09-01T21:55:42.935Z,11.77
2022-09-01T21:58:10.267Z,10.38
2022-09-01T22:00:39.966Z,9.05
2022-09-01T22:03:09.376Z,9.93
2022-09-01T22:05:41.911Z,11.00
2022-09-01T22:08:12.424Z,9.35
2022-09-01T22:10:52.798Z,9.00
2022-09-01T22:13:23.672Z,10.77
2022-09-01T22:15:54.378Z,10.60
2022-09-01T22:18:22.967Z,10.30
2022-09-01T22:20:50.628Z,10.10
2022-09-01T22:23:18.414Z,10.32
2022-09-01T22:25:48.467Z,10.88
2022-09-01T22:28:16.379Z,23.75
2022-09-01T22:30:48.499Z,31.20
2022-09-01T22:33:18.093Z,28.42
2022-09-01T22:35:50.252Z,12.48
2022-09-01T22:38:21.339Z,11.95
2022-09-01T22:40:58.009Z,11.25
2022-09-01T22:43:27.708Z,11.18
2022-09-01T22:45:56.212Z,12.30
2022-09-01T22:48:27.442Z,10.50
2022-09-01T22:50:55.508Z,11.00
2022-09-01T22:53:23.538Z,10.60
2022-09-01T22:55:52.669Z,10.63
2022-09-01T22:58:20.684Z,10.68
2022-09-01T23:00:52.863Z,10.57
2022-09-01T23:03:21.217Z,11.15
2022-09-01T23:05:50.100Z,10.90
2022-09-01T23:08:17.754Z,11.75
2022-09-01T23:10:45.099Z,11.23
2022-09-01T23:13:13.388Z,11.32
2022-09-01T23:15:42.049Z,12.52
2022-09-01T23:18:11.633Z,12.38
2022-09-01T23:20:38.922Z,12.45
2022-09-01T23:23:06.877Z,13.48
2022-09-01T23:25:34.180Z,12.77
2022-09-01T23:28:02.301Z,13.00
2022-09-01T23:30:29.551Z,13.13
2022-09-01T23:32:58.165Z,12.70
2022-09-01T23:35:25.859Z,12.27
2022-09-01T23:37:53.631Z,12.93
2022-09-01T23:40:21.450Z,13.27
2022-09-01T23:42:49.320Z,13.25
2022-09-01T23:45:16.882Z,12.73
2022-09-01T23:47:44.626Z,12.57
2022-09-01T23:50:12.356Z,11.95
2022-09-01T23:52:40.294Z,12.70
2022-09-01T23:55:08.391Z,12.75
2022-09-01T23:57:36.190Z,13.15
